createdAt,value
2017-08-12T00:01:22.571Z,25.90
2017-08-12T00:03:48.958Z,22.67
2017-08-12T00:06:15.343Z,27.37
2017-08-12T00:08:41.739Z,21.73
2017-08-12T00:11:08.151Z,29.07
2017-08-12T00:13:34.579Z,25.20
2017-08-12T00:16:01.783Z,26.60
2017-08-12T00:18:28.191Z,25.10
2017-08-12T00:20:54.555Z,24.53
2017-08-12T00:23:20.986Z,22.60
2017-08-12T00:25:47.413Z,24.90
2017-08-12T00:28:13.880Z,20.83
2017-08-12T00:30:40.296Z,24.03
2017-08-12T00:33:06.764Z,23.43
2017-08-12T00:35:33.206Z,28.97
2017-08-12T00:37:59.595Z,24.90
2017-08-12T00:40:26.047Z,21.87
2017-08-12T00:42:52.510Z,27.43
2017-08-12T00:45:18.919Z,22.70
2017-08-12T00:47:46.403Z,22.27
2017-08-12T00:50:12.829Z,25.00
2017-08-12T00:52:39.278Z,23.33
2017-08-12T00:55:05.736Z,24.20
2017-08-12T00:57:32.910Z,23.73
2017-08-12T00:59:59.320Z,22.27
2017-08-12T01:02:25.767Z,28.20
2017-08-12T01:04:52.150Z,23.40
2017-08-12T01:07:19.260Z,24.57
2017-08-12T01:09:45.751Z,25.90
2017-08-12T01:12:12.175Z,27.00
2017-08-12T01:14:38.561Z,26.30
2017-08-12T01:17:04.956Z,32.33
2017-08-12T01:19:31.427Z,23.87
2017-08-12T01:21:57.847Z,30.23
2017-08-12T01:24:24.279Z,24.20
2017-08-12T01:26:50.723Z,22.80
2017-08-12T01:29:18.273Z,24.47
2017-08-12T01:31:44.687Z,22.03
2017-08-12T01:34:11.103Z,24.57
2017-08-12T01:36:38.211Z,23.83
2017-08-12T01:39:05.607Z,22.60
2017-08-12T01:41:32.045Z,27.07
2017-08-12T01:43:58.475Z,19.77
2017-08-12T01:46:24.879Z,29.30
2017-08-12T01:48:51.275Z,28.97
2017-08-12T01:51:17.659Z,23.70
2017-08-12T01:53:44.124Z,25.10
2017-08-12T01:56:10.581Z,25.90
2017-08-12T01:58:36.979Z,26.13
2017-08-12T02:01:03.404Z,20.10
2017-08-12T02:03:29.834Z,28.20
2017-08-12T02:05:56.227Z,21.10
2017-08-12T02:08:22.639Z,21.43
2017-08-12T02:10:49.057Z,26.00
2017-08-12T02:13:15.438Z,27.70
2017-08-12T02:15:41.874Z,32.73
2017-08-12T02:18:08.298Z,29.50
2017-08-12T02:20:34.739Z,29.93
2017-08-12T02:23:01.953Z,29.27
2017-08-12T02:25:28.467Z,26.70
2017-08-12T02:27:54.880Z,21.57
2017-08-12T02:30:21.368Z,32.27
2017-08-12T02:32:47.816Z,29.03
2017-08-12T02:35:14.191Z,23.37
2017-08-12T02:37:40.566Z,24.27
2017-08-12T02:40:08.007Z,24.80
2017-08-12T02:42:34.400Z,30.60
2017-08-12T02:45:00.823Z,32.87
2017-08-12T02:47:27.251Z,28.70
2017-08-12T02:49:53.656Z,22.63
2017-08-12T02:52:20.043Z,21.73
2017-08-12T02:54:46.471Z,27.20
2017-08-12T02:57:12.845Z,28.63
2017-08-12T02:59:39.259Z,27.37
2017-08-12T03:02:05.671Z,25.47
2017-08-12T03:04:32.095Z,27.80
2017-08-12T03:06:58.459Z,28.27
2017-08-12T03:09:24.878Z,24.90
2017-08-12T03:11:51.331Z,26.40
2017-08-12T03:14:17.754Z,30.00
2017-08-12T03:16:44.543Z,25.70
2017-08-12T03:19:10.951Z,28.10
2017-08-12T03:21:37.365Z,23.43
2017-08-12T03:24:03.791Z,27.40
2017-08-12T03:26:30.220Z,26.57
2017-08-12T03:28:57.011Z,27.47
2017-08-12T03:31:23.443Z,26.03
2017-08-12T03:33:49.825Z,34.00
2017-08-12T03:36:16.278Z,27.80
2017-08-12T03:38:43.759Z,28.73
2017-08-12T03:41:10.160Z,29.10
2017-08-12T03:43:36.583Z,36.10
2017-08-12T03:46:03.723Z,36.10
2017-08-12T03:48:30.914Z,28.20
2017-08-12T03:50:57.283Z,26.10
2017-08-12T03:53:23.691Z,27.97
2017-08-12T03:55:50.054Z,31.60
2017-08-12T03:58:16.506Z,32.50
2017-08-12T04:00:42.901Z,31.60
2017-08-12T04:03:09.307Z,28.70
2017-08-12T04:05:36.480Z,34.30
2017-08-12T04:08:02.875Z,32.07
2017-08-12T04:10:30.009Z,23.90
2017-08-12T04:12:57.170Z,24.10
2017-08-12T04:15:23.591Z,36.57
2017-08-12T04:17:49.974Z,28.00
2017-08-12T04:20:17.110Z,24.93
2017-08-12T04:22:43.496Z,29.70
2017-08-12T04:25:09.869Z,25.23
2017-08-12T04:27:36.295Z,26.27
2017-08-12T04:30:02.727Z,29.33
2017-08-12T04:32:29.159Z,25.70
2017-08-12T04:34:55.636Z,22.57
2017-08-12T04:37:22.033Z,25.60
2017-08-12T04:39:49.161Z,27.50
2017-08-12T04:42:16.339Z,27.17
2017-08-12T04:44:42.751Z,24.33
2017-08-12T04:47:09.119Z,23.57
2017-08-12T04:49:36.292Z,25.00
2017-08-12T04:52:02.706Z,24.83
2017-08-12T04:54:29.096Z,26.50
2017-08-12T04:56:55.451Z,23.10
2017-08-12T04:59:21.866Z,21.47
2017-08-12T05:01:48.255Z,27.33
2017-08-12T05:04:14.704Z,26.17
2017-08-12T05:06:41.101Z,23.90
2017-08-12T05:09:07.496Z,25.87
2017-08-12T05:11:33.886Z,29.00
2017-08-12T05:14:01.044Z,25.97
2017-08-12T05:16:27.436Z,23.20
2017-08-12T05:18:53.859Z,23.83
2017-08-12T05:21:21.003Z,25.60
2017-08-12T05:23:48.124Z,23.73
2017-08-12T05:26:14.510Z,33.50
2017-08-12T05:28:40.911Z,29.93
2017-08-12T05:31:07.278Z,21.03
2017-08-12T05:33:34.435Z,22.00
2017-08-12T05:36:00.866Z,25.40
2017-08-12T05:38:27.257Z,24.27
2017-08-12T05:40:53.751Z,22.17
2017-08-12T05:43:20.927Z,22.77
2017-08-12T05:45:47.327Z,20.77
2017-08-12T05:48:23.867Z,24.90
2017-08-12T05:50:51.011Z,24.33
2017-08-12T05:53:17.465Z,19.40
2017-08-12T05:55:44.152Z,20.97
2017-08-12T05:58:10.548Z,22.73
2017-08-12T06:00:36.927Z,22.50
2017-08-12T06:03:03.343Z,23.33
2017-08-12T06:05:29.827Z,19.23
2017-08-12T06:07:56.934Z,22.80
2017-08-12T06:10:23.348Z,21.77
2017-08-12T06:12:50.467Z,23.10
2017-08-12T06:15:16.887Z,22.33
2017-08-12T06:17:43.337Z,26.53
2017-08-12T06:20:09.735Z,24.53
2017-08-12T06:22:36.152Z,30.37
2017-08-12T06:25:03.345Z,24.10
2017-08-12T06:27:29.792Z,29.43
2017-08-12T06:29:56.185Z,26.37
2017-08-12T06:32:22.620Z,29.20
2017-08-12T06:34:49.797Z,26.53
2017-08-12T06:37:16.931Z,24.80
2017-08-12T06:39:43.346Z,26.17
2017-08-12T06:42:09.766Z,35.00
2017-08-12T06:44:36.191Z,26.97
2017-08-12T06:47:03.355Z,26.47
2017-08-12T06:49:29.791Z,29.40
2017-08-12T06:51:56.207Z,20.00
2017-08-12T06:54:22.639Z,20.33
2017-08-12T06:56:49.775Z,26.10
2017-08-12T06:59:16.203Z,20.47
2017-08-12T07:01:43.389Z,24.43
2017-08-12T07:04:09.788Z,16.70
2017-08-12T07:06:36.176Z,19.23
2017-08-12T07:09:03.393Z,19.30
2017-08-12T07:11:30.535Z,16.17
2017-08-12T07:13:56.907Z,13.63
2017-08-12T07:16:24.152Z,14.17
2017-08-12T07:18:50.599Z,17.20
2017-08-12T07:21:16.995Z,13.57
2017-08-12T07:23:43.431Z,21.50
2017-08-12T07:26:09.835Z,11.90
2017-08-12T07:28:36.238Z,14.50
2017-08-12T07:31:02.647Z,17.77
2017-08-12T07:33:29.070Z,11.80
2017-08-12T07:35:55.431Z,11.47
2017-08-12T07:38:21.870Z,13.00
2017-08-12T07:40:48.296Z,14.27
2017-08-12T07:43:14.710Z,11.03
2017-08-12T07:45:41.167Z,8.80
2017-08-12T07:48:07.543Z,7.63
2017-08-12T07:50:33.896Z,9.60
2017-08-12T07:53:00.348Z,8.13
2017-08-12T07:55:26.747Z,5.83
2017-08-12T07:57:53.131Z,10.20
2017-08-12T08:00:19.570Z,10.33
2017-08-12T08:02:46.015Z,9.93
2017-08-12T08:05:12.397Z,7.83
2017-08-12T08:07:38.891Z,10.73
2017-08-12T08:10:05.267Z,6.77
2017-08-12T08:12:31.697Z,10.53
2017-08-12T08:14:58.075Z,10.03
2017-08-12T08:17:24.411Z,5.63
2017-08-12T08:19:50.831Z,5.77
2017-08-12T08:22:17.230Z,13.00
2017-08-12T08:24:43.615Z,5.30
2017-08-12T08:27:10.007Z,8.70
2017-08-12T08:29:36.461Z,5.00
2017-08-12T08:32:02.888Z,7.20
2017-08-12T08:34:29.243Z,6.80
2017-08-12T08:36:55.649Z,5.50
2017-08-12T08:39:22.055Z,6.03
2017-08-12T08:41:48.513Z,6.63
2017-08-12T08:44:15.680Z,8.70
2017-08-12T08:46:42.095Z,11.90
2017-08-12T08:49:08.495Z,10.83
2017-08-12T08:51:34.944Z,5.30
2017-08-12T08:54:01.351Z,3.67
2017-08-12T08:56:27.757Z,6.30
2017-08-12T08:58:55.251Z,10.97
2017-08-12T09:01:21.700Z,6.13
2017-08-12T09:03:48.087Z,12.70
2017-08-12T09:06:14.482Z,10.50
2017-08-12T09:08:40.943Z,4.93
2017-08-12T09:11:08.038Z,8.30
2017-08-12T09:13:34.524Z,8.20
2017-08-12T09:16:00.930Z,5.70
2017-08-12T09:18:27.314Z,9.67
2017-08-12T09:20:53.720Z,9.27
2017-08-12T09:23:20.134Z,4.03
2017-08-12T09:25:46.579Z,3.80
2017-08-12T09:28:13.085Z,7.57
2017-08-12T09:30:39.551Z,5.87
2017-08-12T09:33:06.007Z,8.43
2017-08-12T09:35:32.387Z,7.30
2017-08-12T09:37:58.875Z,7.23
2017-08-12T09:40:25.272Z,4.80
2017-08-12T09:42:51.655Z,5.60
2017-08-12T09:45:18.060Z,5.70
2017-08-12T09:47:44.446Z,8.37
2017-08-12T09:50:11.580Z,4.23
2017-08-12T09:52:38.007Z,4.10
2017-08-12T09:55:04.452Z,7.00
2017-08-12T09:57:31.858Z,5.73
2017-08-12T09:59:59.278Z,4.20
2017-08-12T10:02:25.636Z,11.07
2017-08-12T10:04:52.145Z,6.80
2017-08-12T10:07:18.607Z,7.60
2017-08-12T10:09:44.970Z,4.47
2017-08-12T10:12:11.359Z,4.53
2017-08-12T10:14:37.836Z,4.37
2017-08-12T10:17:04.229Z,4.30
2017-08-12T10:19:30.654Z,5.83
2017-08-12T10:21:57.121Z,4.93
2017-08-12T10:24:23.535Z,4.43
2017-08-12T10:26:50.650Z,6.43
2017-08-12T10:29:17.074Z,5.87
2017-08-12T10:31:43.495Z,7.07
2017-08-12T10:34:09.908Z,5.60
2017-08-12T10:36:36.351Z,8.40
2017-08-12T10:39:03.948Z,5.07
2017-08-12T10:41:30.351Z,9.57
2017-08-12T10:43:56.847Z,6.83
2017-08-12T10:46:23.239Z,7.67
2017-08-12T10:48:49.604Z,4.80
2017-08-12T10:51:16.019Z,12.33
2017-08-12T10:53:42.405Z,8.03
2017-08-12T10:56:08.863Z,7.93
2017-08-12T10:58:35.296Z,4.20
2017-08-12T11:01:01.661Z,8.30
2017-08-12T11:03:28.041Z,4.93
2017-08-12T11:05:54.559Z,5.03
2017-08-12T11:08:20.949Z,6.63
2017-08-12T11:10:47.326Z,4.20
2017-08-12T11:13:13.755Z,6.87
2017-08-12T11:15:41.123Z,3.90
2017-08-12T11:18:08.303Z,3.20
2017-08-12T11:20:34.737Z,6.53
2017-08-12T11:23:01.091Z,2.17
2017-08-12T11:25:27.456Z,3.53
2017-08-12T11:27:53.907Z,3.07
2017-08-12T11:30:20.345Z,3.90
2017-08-12T11:32:46.731Z,2.63
2017-08-12T11:35:13.867Z,4.17
2017-08-12T11:37:40.263Z,8.00
2017-08-12T11:40:06.630Z,3.40
2017-08-12T11:42:33.115Z,2.93
2017-08-12T11:44:59.523Z,2.70
2017-08-12T11:47:25.927Z,2.87
2017-08-12T11:49:52.415Z,5.13
2017-08-12T11:52:18.816Z,3.03
2017-08-12T11:54:45.224Z,4.90
2017-08-12T11:57:11.634Z,3.07
2017-08-12T11:59:38.152Z,3.13
2017-08-12T12:02:04.555Z,2.87
2017-08-12T12:04:32.099Z,2.47
2017-08-12T12:06:59.275Z,4.30
2017-08-12T12:09:25.627Z,6.27
2017-08-12T12:11:52.008Z,3.60
2017-08-12T12:14:18.379Z,4.40
2017-08-12T12:16:44.800Z,3.77
2017-08-12T12:19:11.260Z,1.90
2017-08-12T12:21:37.648Z,4.33
2017-08-12T12:24:04.128Z,3.07
2017-08-12T12:26:31.291Z,2.43
2017-08-12T12:28:57.668Z,2.60
2017-08-12T12:31:39.032Z,2.97
2017-08-12T12:34:05.492Z,2.70
2017-08-12T12:36:31.946Z,7.27
2017-08-12T12:38:58.327Z,2.73
2017-08-12T12:41:24.687Z,2.13
2017-08-12T12:43:51.084Z,2.27
2017-08-12T12:46:17.512Z,3.67
2017-08-12T12:48:43.927Z,2.13
2017-08-12T12:51:10.287Z,3.57
2017-08-12T12:53:36.776Z,3.30
2017-08-12T12:56:03.179Z,2.50
2017-08-12T12:58:30.643Z,4.10
2017-08-12T13:00:57.479Z,3.30
2017-08-12T13:03:23.883Z,3.80
2017-08-12T13:05:50.274Z,4.53
2017-08-12T13:08:16.762Z,2.60
2017-08-12T13:10:43.180Z,9.63
2017-08-12T13:13:10.347Z,6.53
2017-08-12T13:15:36.695Z,4.70
2017-08-12T13:18:03.080Z,6.23
2017-08-12T13:20:29.482Z,3.03
2017-08-12T13:22:55.878Z,4.90
2017-08-12T13:25:23.379Z,3.23
2017-08-12T13:27:49.823Z,6.37
2017-08-12T13:30:16.932Z,6.60
2017-08-12T13:32:43.335Z,5.10
2017-08-12T13:35:09.738Z,5.47
2017-08-12T13:37:36.167Z,5.30
2017-08-12T13:40:02.632Z,4.10
2017-08-12T13:42:29.847Z,4.90
2017-08-12T13:44:56.248Z,7.80
2017-08-12T13:47:22.662Z,4.93
2017-08-12T13:49:49.095Z,7.20
2017-08-12T13:52:15.471Z,5.87
2017-08-12T13:54:42.886Z,5.90
2017-08-12T13:57:10.044Z,4.90
2017-08-12T13:59:36.403Z,4.73
2017-08-12T14:02:02.800Z,3.13
2017-08-12T14:04:29.203Z,5.07
2017-08-12T14:06:55.587Z,3.27
2017-08-12T14:09:22.012Z,3.80
2017-08-12T14:11:48.508Z,6.20
2017-08-12T14:14:15.672Z,3.83
2017-08-12T14:16:42.063Z,3.50
2017-08-12T14:19:09.200Z,3.90
2017-08-12T14:21:35.585Z,9.43
2017-08-12T14:24:02.068Z,6.83
2017-08-12T14:26:28.469Z,6.00
2017-08-12T14:28:55.619Z,9.40
2017-08-12T14:31:22.123Z,10.30
2017-08-12T14:33:48.519Z,7.73
2017-08-12T14:36:14.927Z,9.63
2017-08-12T14:38:42.107Z,9.80
2017-08-12T14:41:08.491Z,10.47
2017-08-12T14:43:35.619Z,9.00
2017-08-12T14:46:02.100Z,8.40
2017-08-12T14:48:28.466Z,8.53
2017-08-12T14:50:55.695Z,7.23
2017-08-12T14:53:22.863Z,7.17
2017-08-12T14:55:50.305Z,7.00
2017-08-12T14:58:16.732Z,6.70
2017-08-12T15:00:43.189Z,7.87
2017-08-12T15:03:10.363Z,10.80
2017-08-12T15:05:36.767Z,7.67
2017-08-12T15:08:03.187Z,7.37
2017-08-12T15:10:29.653Z,8.00
2017-08-12T15:12:56.159Z,7.03
2017-08-12T15:15:22.569Z,9.10
2017-08-12T15:17:48.959Z,5.10
2017-08-12T15:20:16.094Z,4.37
2017-08-12T15:22:42.574Z,5.17
2017-08-12T15:25:08.957Z,4.80
2017-08-12T15:27:36.480Z,4.27
2017-08-12T15:32:29.371Z,3.90
2017-08-12T15:34:55.831Z,5.70
2017-08-12T15:37:22.246Z,6.60
2017-08-12T15:39:48.691Z,4.77
2017-08-12T15:42:15.090Z,3.13
2017-08-12T15:44:41.521Z,3.03
2017-08-12T15:47:07.971Z,2.70
2017-08-12T15:49:34.431Z,2.50
2017-08-12T15:52:00.875Z,2.50
2017-08-12T15:54:27.263Z,2.80
2017-08-12T15:56:53.703Z,3.10
2017-08-12T15:59:20.143Z,4.03
2017-08-12T16:01:46.523Z,3.63
2017-08-12T16:04:13.043Z,3.27
2017-08-12T16:06:39.443Z,4.33
2017-08-12T16:09:06.596Z,2.80
2017-08-12T16:11:33.027Z,5.73
2017-08-12T16:14:00.490Z,3.90
2017-08-12T16:16:26.853Z,2.47
2017-08-12T16:18:54.036Z,2.63
2017-08-12T16:21:20.410Z,3.33
2017-08-12T16:23:47.496Z,4.30
2017-08-12T16:26:13.856Z,4.47
2017-08-12T16:28:40.300Z,4.90
2017-08-12T16:31:06.700Z,3.17
2017-08-12T16:33:33.112Z,2.90
2017-08-12T16:35:59.507Z,4.30
2017-08-12T16:38:25.919Z,6.83
2017-08-12T16:40:52.331Z,2.87
2017-08-12T16:43:19.631Z,8.10
2017-08-12T16:45:45.993Z,2.57
2017-08-12T16:48:12.527Z,2.97
2017-08-12T16:50:38.888Z,3.37
2017-08-12T16:53:05.208Z,3.23
2017-08-12T16:55:31.635Z,3.30
2017-08-12T16:57:58.048Z,3.40
2017-08-12T17:00:24.447Z,2.83
2017-08-12T17:02:50.853Z,4.20
2017-08-12T17:05:17.272Z,5.03
2017-08-12T17:07:43.682Z,3.43
2017-08-12T17:10:10.048Z,4.73
2017-08-12T17:12:37.195Z,4.50
2017-08-12T17:15:03.563Z,4.53
2017-08-12T17:17:29.939Z,4.33
2017-08-12T17:19:56.355Z,3.07
2017-08-12T17:22:22.701Z,6.90
2017-08-12T17:24:49.106Z,6.37
2017-08-12T17:27:15.523Z,4.77
2017-08-12T17:29:41.892Z,3.80
2017-08-12T17:32:08.310Z,3.93
2017-08-12T17:34:34.713Z,3.03
2017-08-12T17:37:01.103Z,4.33
2017-08-12T17:39:27.539Z,3.60
2017-08-12T17:41:53.957Z,4.67
2017-08-12T17:44:20.375Z,6.80
2017-08-12T17:46:46.787Z,6.53
2017-08-12T17:49:13.156Z,6.90
2017-08-12T17:51:39.580Z,3.03
2017-08-12T17:54:05.944Z,4.10
2017-08-12T17:56:33.100Z,7.80
2017-08-12T17:58:59.502Z,5.37
2017-08-12T18:01:25.875Z,5.80
2017-08-12T18:03:52.271Z,4.13
2017-08-12T18:06:18.652Z,9.23
2017-08-12T18:08:44.999Z,4.40
2017-08-12T18:11:11.413Z,4.73
2017-08-12T18:13:37.897Z,5.20
2017-08-12T18:18:40.380Z,4.90
2017-08-12T18:21:06.869Z,3.60
2017-08-12T18:23:33.291Z,4.20
2017-08-12T18:25:59.697Z,4.57
2017-08-12T18:28:26.197Z,5.13
2017-08-12T18:30:53.370Z,4.10
2017-08-12T18:33:20.185Z,5.73
2017-08-12T18:35:46.855Z,4.17
2017-08-12T18:38:13.509Z,3.97
2017-08-12T18:40:40.237Z,5.37
2017-08-12T18:43:06.863Z,4.20
2017-08-12T18:45:34.288Z,6.07
2017-08-12T18:48:01.078Z,5.73
2017-08-12T18:50:27.889Z,4.67
2017-08-12T18:52:54.694Z,3.53
2017-08-12T18:55:21.632Z,4.87
2017-08-12T18:57:48.372Z,3.63
2017-08-12T19:00:15.274Z,3.77
2017-08-12T19:02:41.787Z,7.30
2017-08-12T19:05:08.426Z,3.17
2017-08-12T19:07:35.010Z,7.20
2017-08-12T19:10:01.893Z,4.07
2017-08-12T19:12:28.704Z,7.47
2017-08-12T19:14:55.537Z,6.97
2017-08-12T19:17:22.327Z,6.10
2017-08-12T19:19:49.749Z,5.30
2017-08-12T19:22:18.060Z,4.87
2017-08-12T19:24:46.057Z,4.53
2017-08-12T19:27:13.146Z,5.40
2017-08-12T19:29:40.759Z,6.40
2017-08-12T19:32:08.381Z,4.33
2017-08-12T19:34:35.370Z,6.33
2017-08-12T19:37:02.329Z,3.73
2017-08-12T19:39:29.381Z,4.37
2017-08-12T19:41:56.742Z,7.03
2017-08-12T19:44:24.835Z,5.70
2017-08-12T19:46:52.476Z,7.67
2017-08-12T19:49:20.227Z,4.20
2017-08-12T19:51:49.152Z,5.13
2017-08-12T19:54:17.156Z,5.20
2017-08-12T19:56:44.931Z,4.00
2017-08-12T19:59:13.469Z,7.33
2017-08-12T20:01:41.460Z,4.67
2017-08-12T20:04:09.268Z,5.10
2017-08-12T20:06:37.067Z,7.03
2017-08-12T20:09:05.129Z,5.80
2017-08-12T20:11:32.935Z,5.20
2017-08-12T20:14:00.774Z,8.20
2017-08-12T20:16:28.823Z,4.90
2017-08-12T20:18:56.680Z,4.60
2017-08-12T20:21:24.525Z,7.57
2017-08-12T20:23:52.487Z,6.40
2017-08-12T20:26:20.327Z,5.50
2017-08-12T20:28:48.360Z,7.07
2017-08-12T20:31:16.245Z,11.50
2017-08-12T20:33:45.108Z,4.80
2017-08-12T20:36:12.937Z,6.50
2017-08-12T20:38:40.746Z,5.70
2017-08-12T20:41:08.335Z,8.47
2017-08-12T20:43:36.173Z,4.93
2017-08-12T20:46:04.026Z,4.23
2017-08-12T20:48:31.890Z,8.80
2017-08-12T20:50:59.824Z,7.23
2017-08-12T20:53:27.696Z,4.63
2017-08-12T20:55:55.480Z,5.33
2017-08-12T20:58:23.285Z,5.27
2017-08-12T21:00:51.057Z,6.70
2017-08-12T21:03:18.833Z,5.97
2017-08-12T21:05:46.705Z,8.63
2017-08-12T21:08:14.619Z,6.83
2017-08-12T21:10:42.282Z,4.90
2017-08-12T21:13:10.166Z,8.70
2017-08-12T21:15:37.983Z,7.97
2017-08-12T21:18:05.492Z,7.80
2017-08-12T21:20:33.294Z,7.37
2017-08-12T21:23:01.511Z,8.43
2017-08-12T21:25:29.039Z,13.83
2017-08-12T21:27:56.706Z,5.27
2017-08-12T21:30:24.487Z,15.50
2017-08-12T21:32:51.589Z,11.53
2017-08-12T21:35:18.415Z,8.70
2017-08-12T21:37:45.483Z,8.67
2017-08-12T21:40:12.740Z,8.07
2017-08-12T21:42:39.733Z,7.60
2017-08-12T21:45:07.434Z,8.43
2017-08-12T21:47:34.344Z,8.73
2017-08-12T21:50:01.242Z,9.50
2017-08-12T21:52:27.795Z,14.20
2017-08-12T21:54:54.236Z,5.97
2017-08-12T21:57:20.704Z,6.80
2017-08-12T21:59:47.288Z,5.77
2017-08-12T22:02:13.772Z,5.03
2017-08-12T22:04:40.127Z,6.27
2017-08-12T22:07:06.511Z,4.90
2017-08-12T22:09:32.831Z,6.20
2017-08-12T22:11:59.174Z,5.60
2017-08-12T22:14:25.638Z,4.80
2017-08-12T22:16:52.031Z,7.80
2017-08-12T22:19:18.427Z,5.47
2017-08-12T22:21:44.858Z,5.70
2017-08-12T22:24:11.223Z,10.63
2017-08-12T22:26:37.614Z,8.57
2017-08-12T22:29:04.051Z,5.13
2017-08-12T22:31:30.414Z,7.10
2017-08-12T22:33:57.535Z,5.53
2017-08-12T22:36:24.671Z,8.20
2017-08-12T22:38:51.804Z,7.90
2017-08-12T22:41:18.170Z,5.20
2017-08-12T22:43:44.600Z,9.70
2017-08-12T22:46:10.975Z,12.30
2017-08-12T22:48:37.323Z,6.20
2017-08-12T22:51:03.716Z,6.20
2017-08-12T22:53:30.051Z,7.20
2017-08-12T22:55:56.419Z,7.93
2017-08-12T22:58:22.838Z,6.90
2017-08-12T23:00:49.215Z,6.67
2017-08-12T23:03:15.597Z,8.90
2017-08-12T23:05:42.007Z,5.57
2017-08-12T23:08:08.382Z,6.20
2017-08-12T23:10:35.499Z,6.60
2017-08-12T23:13:02.175Z,6.07
2017-08-12T23:15:28.523Z,8.50
2017-08-12T23:17:54.919Z,6.70
2017-08-12T23:20:21.335Z,6.47
2017-08-12T23:22:47.694Z,8.13
2017-08-12T23:25:14.843Z,5.67
2017-08-12T23:27:42.395Z,7.43
2017-08-12T23:30:08.774Z,5.93
2017-08-12T23:32:35.191Z,10.77
2017-08-12T23:35:01.596Z,6.20
2017-08-12T23:37:27.994Z,5.03
2017-08-12T23:39:54.384Z,6.20
2017-08-12T23:42:20.799Z,9.20
2017-08-12T23:44:47.152Z,7.30
2017-08-12T23:47:13.579Z,6.40
2017-08-12T23:49:40.739Z,6.80
2017-08-12T23:52:07.856Z,15.13
2017-08-12T23:54:35.073Z,8.20
2017-08-12T23:57:01.451Z,6.57
2017-08-12T23:59:27.815Z,9.70
